Time;durP1;ratioP1;P1;durP2;ratioP2;P2;SDS_P1;SDS_P2;PMS_P1;PMS_P2;Temp;Humidity;BMP_temperature;BMP_pressure;BME280_temperature;BME280_humidity;BME280_pressure;Samples;Min_cycle;Max_cycle;Signal;HPM_P1;HPM_P2
2021/01/09 10:40:58;;;;;;;13.03;10.23;;;;;;;4.87;79.85;99456.84;5167927;27;20537;-82
2021/01/09 10:43:26;;;;;;;14.90;11.10;;;;;;;6.81;76.61;99456.41;5138144;27;38956;-84
2021/01/09 10:45:53;;;;;;;12.73;9.97;;;;;;;7.12;71.87;99471.91;5159438;27;42038;-84
2021/01/09 10:48:20;;;;;;;12.90;9.50;;;;;;;6.74;71.67;99479.50;5125245;27;43129;-85
2021/01/09 10:50:47;;;;;;;11.83;9.83;;;;;;;7.11;71.71;99470.19;5181785;22;41835;-84
2021/01/09 10:53:14;;;;;;;12.37;9.73;;;;;;;7.92;66.52;99480.97;5084552;28;39734;-81
2021/01/09 10:55:41;;;;;;;12.57;10.50;;;;;;;10.37;65.86;99478.31;5086691;28;41605;-83
2021/01/09 10:58:09;;;;;;;12.63;9.90;;;;;;;13.49;56.02;99528.38;5070852;28;42151;-84
2021/01/09 11:03:24;;;;;;;10.07;9.07;;;;;;;17.98;43.04;99576.69;5024609;28;20267;-83
2021/01/09 11:05:51;;;;;;;9.40;8.50;;;;;;;17.18;43.12;99562.59;5023541;28;42246;-82
2021/01/09 11:08:18;;;;;;;10.33;9.33;;;;;;;17.16;41.54;99564.53;5008480;28;42267;-81
2021/01/09 11:10:46;;;;;;;9.80;8.83;;;;;;;16.24;42.99;99564.44;5007879;28;41400;-81
2021/01/09 11:13:17;;;;;;;10.97;9.87;;;;;;;14.41;41.78;99572.06;5127938;22;40618;-81
2021/01/09 11:15:53;;;;;;;11.27;10.07;;;;;;;12.94;47.55;99483.97;5057887;28;41730;-82
2021/01/09 11:18:20;;;;;;;14.37;12.30;;;;;;;12.21;48.05;99504.34;5058830;28;42077;-80
2021/01/09 11:20:49;;;;;;;13.23;11.37;;;;;;;11.81;47.67;99530.53;5063970;28;41918;-80
2021/01/09 11:23:17;;;;;;;12.07;10.80;;;;;;;11.46;50.04;99505.97;5051080;28;40104;-80
2021/01/09 11:25:45;;;;;;;11.53;10.33;;;;;;;11.38;50.70;99504.66;5122449;22;40777;-80
2021/01/09 11:28:15;;;;;;;11.67;10.50;;;;;;;12.19;47.32;99515.06;5026505;28;42472;-79
2021/01/09 11:30:45;;;;;;;11.93;10.50;;;;;;;12.31;45.88;99532.06;5027507;28;41386;-79
2021/01/09 11:33:12;;;;;;;12.43;10.57;;;;;;;11.94;47.37;99521.88;5011497;28;38848;-79
2021/01/09 11:35:40;;;;;;;13.55;11.55;;;;;;;11.06;48.46;99509.94;5118910;22;44671;-80
2021/01/09 11:38:07;;;;;;;13.70;11.97;;;;;;;11.10;50.39;99508.84;5046336;28;42308;-80
2021/01/09 11:40:34;;;;;;;12.17;10.83;;;;;;;12.16;48.77;99517.88;5031062;28;41962;-79
2021/01/09 11:43:01;;;;;;;10.63;9.63;;;;;;;12.93;46.01;99528.31;5031343;28;39061;-80
2021/01/09 11:45:29;;;;;;;11.30;10.17;;;;;;;12.55;45.82;99535.94;5047464;28;41622;-80
2021/01/09 11:47:56;;;;;;;12.17;9.57;;;;;;;11.86;47.26;99531.16;5136523;22;42841;-81
2021/01/09 11:50:23;;;;;;;10.63;9.53;;;;;;;11.19;46.49;99543.75;5061370;28;41965;-80
2021/01/09 11:52:50;;;;;;;11.60;10.20;;;;;;;10.86;49.61;99514.59;5034499;28;39231;-79
2021/01/09 11:55:17;;;;;;;12.60;10.23;;;;;;;10.55;49.18;99510.03;5032965;28;41661;-79
2021/01/09 11:57:45;;;;;;;11.37;10.00;;;;;;;10.18;50.15;99496.06;5034027;28;42494;-79
2021/01/09 12:00:13;;;;;;;11.43;10.00;;;;;;;9.80;49.25;99510.28;5103255;22;41341;-78
2021/01/09 12:02:41;;;;;;;10.87;9.57;;;;;;;9.43;48.59;99527.94;4997588;28;39172;-79
2021/01/09 12:05:09;;;;;;;12.20;9.50;;;;;;;8.87;49.33;99510.28;5013696;28;42165;-79
2021/01/09 12:07:36;;;;;;;12.73;9.57;;;;;;;8.58;51.62;99510.69;4997901;28;42803;-79
2021/01/09 12:10:07;;;;;;;15.30;11.77;;;;;;;8.23;53.30;99478.75;4998348;28;41600;-78
2021/01/09 12:12:35;;;;;;;12.63;10.30;;;;;;;8.16;53.39;99492.28;5103291;22;39149;-79
2021/01/09 12:15:03;;;;;;;11.57;9.20;;;;;;;7.93;53.39;99496.72;5033250;28;41694;-79
2021/01/09 12:17:30;;;;;;;10.23;8.67;;;;;;;7.73;54.19;99480.00;5033508;28;44139;-78
2021/01/09 12:19:58;;;;;;;12.13;9.93;;;;;;;7.70;54.19;99498.59;5017754;28;41228;-80
2021/01/09 12:22:26;;;;;;;12.80;10.13;;;;;;;7.43;55.31;99468.91;5107111;22;40000;-80
2021/01/09 12:24:53;;;;;;;11.27;9.40;;;;;;;7.46;55.85;99485.47;5033915;28;39959;-80
2021/01/09 12:27:20;;;;;;;10.67;8.20;;;;;;;7.30;54.86;99489.63;5033165;28;42563;-79
2021/01/09 12:29:47;;;;;;;7.43;6.70;;;;;;;7.12;55.48;99464.03;5017270;28;41596;-79
2021/01/09 12:32:14;;;;;;;8.03;7.10;;;;;;;6.97;55.90;99448.81;5017340;28;39157;-80
2021/01/09 12:34:41;;;;;;;10.87;8.60;;;;;;;7.04;55.64;99490.66;5100806;22;41902;-79
2021/01/09 12:37:10;;;;;;;13.60;10.83;;;;;;;6.93;56.43;99478.78;5013929;28;42887;-79
2021/01/09 12:39:37;;;;;;;9.73;7.97;;;;;;;6.79;56.17;99481.97;4997299;28;41205;-80
2021/01/09 12:42:08;;;;;;;8.97;7.00;;;;;;;6.62;56.34;99485.19;5013884;28;39559;-79
2021/01/09 12:44:35;;;;;;;8.57;7.53;;;;;;;6.39;56.44;99472.03;5012993;28;42357;-80
2021/01/09 12:47:02;;;;;;;8.37;6.93;;;;;;;6.27;56.75;99477.72;5105842;22;41857;-79
2021/01/09 12:49:29;;;;;;;9.27;7.20;;;;;;;6.14;57.07;99479.91;5033857;28;41821;-79
2021/01/09 12:51:57;;;;;;;10.57;8.07;;;;;;;6.06;57.95;99480.16;5033094;28;39835;-79
2021/01/09 12:54:26;;;;;;;9.43;7.73;;;;;;;6.00;58.16;99479.53;5032257;28;41879;-79
2021/01/09 12:56:53;;;;;;;10.87;7.73;;;;;;;5.83;58.39;99461.66;5016926;28;42145;-79
2021/01/09 12:59:22;;;;;;;8.40;6.83;;;;;;;5.87;58.98;99473.78;5133891;22;43948;-79
2021/01/09 13:01:50;;;;;;;10.47;8.83;;;;;;;5.80;59.43;99477.53;5032358;28;40345;-79
2021/01/09 13:04:20;;;;;;;13.33;10.17;;;;;;;5.68;59.00;99472.69;5032512;28;40721;-79
2021/01/09 13:06:49;;;;;;;12.03;9.00;;;;;;;5.53;59.53;99454.78;5032208;28;42459;-79
2021/01/09 13:09:17;;;;;;;15.13;11.33;;;;;;;5.59;59.34;99472.97;5108703;22;42099;-79
2021/01/09 13:11:50;;;;;;;13.07;10.40;;;;;;;5.55;59.58;99472.22;5047943;28;38985;-79
2021/01/09 13:14:17;;;;;;;12.70;8.87;;;;;;;5.54;60.10;99469.66;5047968;28;42368;-80
2021/01/09 13:16:46;;;;;;;10.53;8.13;;;;;;;5.41;60.46;99446.41;5047923;28;43942;-79
2021/01/09 13:19:14;;;;;;;9.93;7.70;;;;;;;5.48;60.05;99470.69;5047562;28;42223;-80
2021/01/09 13:21:41;;;;;;;13.23;9.20;;;;;;;5.44;60.06;99474.31;5125715;22;39903;-79
2021/01/09 13:24:09;;;;;;;10.63;8.73;;;;;;;5.40;60.06;99472.72;5031965;28;41662;-79
2021/01/09 13:26:37;;;;;;;10.33;7.27;;;;;;;5.35;60.68;99472.84;5028687;28;42665;-80
2021/01/09 13:29:05;;;;;;;10.13;8.00;;;;;;;5.35;60.73;99469.38;5037022;28;42627;-81
2021/01/09 13:31:32;;;;;;;10.87;7.53;;;;;;;5.07;61.24;99437.03;5026238;28;39844;-81
2021/01/09 13:34:00;;;;;;;10.17;8.13;;;;;;;5.25;60.86;99479.31;5143068;22;41425;-80
2021/01/09 13:36:27;;;;;;;8.00;6.97;;;;;;;5.07;60.69;99471.97;5068161;28;42710;-80
2021/01/09 13:38:54;;;;;;;9.23;7.00;;;;;;;5.04;60.89;99464.22;5065938;28;42134;-80
2021/01/09 13:41:22;;;;;;;10.90;8.07;;;;;;;5.11;61.37;99481.50;5058946;28;39707;-79
2021/01/09 13:43:49;;;;;;;9.80;7.57;;;;;;;4.89;59.61;99478.66;5126068;22;42053;-80
2021/01/09 13:46:42;;;;;;;8.60;6.87;;;;;;;4.79;59.96;99468.47;5025990;28;40271;-81
2021/01/09 13:52:33;;;;;;;9.07;6.73;;;;;;;4.37;61.30;99413.72;5039930;28;40207;-79
2021/01/09 13:55:04;;;;;;;7.47;6.00;;;;;;;4.62;61.34;99461.94;5030868;28;41266;-79
2021/01/09 13:57:34;;;;;;;13.30;9.47;;;;;;;4.81;61.34;99501.66;5155316;22;42883;-79
2021/01/09 14:00:01;;;;;;;15.17;10.53;;;;;;;4.76;60.84;99500.91;5088967;28;42869;-79
2021/01/09 14:02:30;;;;;;;9.27;7.20;;;;;;;4.75;60.99;99508.81;5047318;28;40189;-80
2021/01/09 14:04:57;;;;;;;8.63;7.27;;;;;;;4.62;61.30;99493.44;5045795;28;40953;-81
2021/01/09 14:07:24;;;;;;;10.20;7.60;;;;;;;4.72;61.65;99507.13;5147020;22;42653;-80
2021/01/09 14:09:51;;;;;;;52.03;30.87;;;;;;;4.48;61.63;99479.84;5014783;28;42009;-80
2021/01/09 14:12:19;;;;;;;26.30;16.13;;;;;;;4.65;61.40;99518.72;5012650;28;39158;-80
2021/01/09 14:14:46;;;;;;;24.07;15.80;;;;;;;4.62;62.09;99518.78;5046335;28;41446;-80
2021/01/09 14:17:13;;;;;;;21.57;13.90;;;;;;;4.57;62.44;99513.69;5030845;28;42244;-79
2021/01/09 14:19:42;;;;;;;22.93;13.00;;;;;;;4.59;62.64;99516.25;5114814;22;42489;-79
2021/01/09 14:22:09;;;;;;;16.27;11.67;;;;;;;4.58;63.04;99512.75;5030836;28;39814;-79
2021/01/09 14:24:36;;;;;;;12.10;10.03;;;;;;;4.49;63.08;99515.66;5031102;28;41357;-80
2021/01/09 14:27:05;;;;;;;10.07;7.90;;;;;;;4.53;63.00;99530.41;5035547;28;42733;-79
2021/01/09 14:29:33;;;;;;;10.67;8.23;;;;;;;4.48;63.30;99526.19;5031394;28;40922;-80
2021/01/09 14:32:00;;;;;;;9.67;7.57;;;;;;;4.47;63.08;99530.56;5120151;22;39750;-80
2021/01/09 14:34:27;;;;;;;8.90;7.50;;;;;;;4.41;63.63;99530.75;5028769;28;41387;-79
2021/01/09 14:36:55;;;;;;;8.23;6.97;;;;;;;4.36;63.08;99532.63;5042939;28;42743;-79
2021/01/09 14:39:22;;;;;;;8.60;6.87;;;;;;;4.32;63.01;99534.47;5042352;28;43013;-79
2021/01/09 14:44:50;;;;;;;7.57;6.40;;;;;;;4.16;63.33;99521.81;5044453;28;42072;-79
2021/01/09 14:47:18;;;;;;;10.23;7.13;;;;;;;4.23;63.68;99542.56;5029858;28;43432;-80
2021/01/09 14:49:45;;;;;;;11.97;8.63;;;;;;;4.21;63.97;99546.13;5011489;28;42961;-80
2021/01/09 14:52:16;;;;;;;7.30;5.77;;;;;;;4.02;64.13;99531.78;5010250;28;40601;-79
2021/01/09 14:54:43;;;;;;;8.57;6.93;;;;;;;4.02;64.02;99542.25;5117693;22;41625;-79
2021/01/09 14:57:11;;;;;;;6.97;5.83;;;;;;;4.03;64.29;99546.59;5136283;22;42812;-80
2021/01/09 14:59:38;;;;;;;7.43;5.97;;;;;;;4.00;64.04;99554.53;5003611;28;40141;-77
2021/01/09 15:02:08;;;;;;;7.23;5.43;;;;;;;3.92;64.32;99542.50;5010465;28;38764;-78
2021/01/09 15:04:35;;;;;;;7.10;6.00;;;;;;;3.88;63.91;99551.31;5010343;28;40728;-80
2021/01/09 15:07:03;;;;;;;6.60;5.60;;;;;;;3.70;63.66;99549.16;5116044;22;42687;-79
2021/01/09 15:09:31;;;;;;;6.73;5.30;;;;;;;3.64;64.21;99538.81;5039308;28;41115;-79
2021/01/09 15:11:58;;;;;;;9.17;6.40;;;;;;;3.71;64.30;99558.72;5086869;28;39997;-79
2021/01/09 15:14:25;;;;;;;5.97;5.37;;;;;;;3.66;64.11;99559.72;5043932;28;40653;-79
2021/01/09 15:16:52;;;;;;;6.10;5.20;;;;;;;3.53;64.34;99543.44;5034179;28;41778;-80
2021/01/09 15:19:19;;;;;;;6.23;5.37;;;;;;;3.57;64.61;99555.56;5112305;22;41176;-80
2021/01/09 15:21:48;;;;;;;5.60;4.77;;;;;;;3.48;64.43;99546.16;5049934;28;40549;-81
2021/01/09 15:24:16;;;;;;;5.50;4.40;;;;;;;3.52;64.78;99554.81;5026191;28;41215;-80
2021/01/09 15:26:45;;;;;;;5.43;4.90;;;;;;;3.47;64.92;99554.91;5049724;28;42767;-81
2021/01/09 15:29:12;;;;;;;6.50;5.53;;;;;;;3.44;65.13;99554.13;5108374;22;41664;-81
2021/01/09 15:31:40;;;;;;;6.23;4.87;;;;;;;3.41;65.09;99554.19;5001387;28;38452;-80
2021/01/09 15:34:08;;;;;;;6.67;5.50;;;;;;;3.41;65.17;99549.81;5011315;28;40984;-80
2021/01/09 15:36:38;;;;;;;6.70;5.50;;;;;;;3.35;65.50;99543.84;4996893;28;41691;-79
2021/01/09 15:39:06;;;;;;;6.13;5.33;;;;;;;3.29;65.52;99544.00;5022382;28;42386;-81
2021/01/09 15:41:34;;;;;;;7.90;4.90;;;;;;;3.28;65.30;99542.28;5121705;22;40190;-80
2021/01/09 15:44:03;;;;;;;6.23;5.37;;;;;;;3.24;65.63;99542.34;5011989;28;41021;-79
2021/01/09 15:46:30;;;;;;;7.83;5.53;;;;;;;3.30;65.83;99556.19;5013906;28;42830;-80
2021/01/09 15:48:57;;;;;;;6.20;5.47;;;;;;;3.29;65.62;99554.47;5013356;28;42171;-79
2021/01/09 15:51:24;;;;;;;6.53;4.97;;;;;;;3.26;66.04;99560.63;4997050;28;38921;-79
2021/01/09 15:53:52;;;;;;;6.23;5.03;;;;;;;3.04;65.62;99530.59;5112772;22;42255;-80
2021/01/09 15:56:46;;;;;;;5.60;5.00;;;;;;;3.22;65.72;99565.06;5032153;28;43539;-80
2021/01/09 15:59:15;;;;;;;6.90;5.33;;;;;;;2.97;65.67;99523.78;5047275;28;42227;-80
2021/01/09 16:09:12;;;;;;;6.40;5.17;;;;;;;2.89;66.02;99537.84;4981524;28;42795;-81
2021/01/09 16:11:42;;;;;;;6.87;5.50;;;;;;;2.92;66.21;99539.56;5031797;28;42134;-82
2021/01/09 16:18:00;;;;;;;8.60;5.47;;;;;;;2.88;65.93;99543.13;5423637;22;43293;-81
2021/01/09 16:20:53;;;;;;;7.67;6.00;;;;;;;3.08;66.29;99567.13;5014640;28;41786;-82
